sensor_id;sensor_type;location;lat;lon;timestamp;pressure;altitude;pressure_sealevel;temperature;humidity
6395;BME280;3230;42.588;23.358;2023-02-17T00:00:53;91840.81;;;0.38;81.31
6395;BME280;3230;42.588;23.358;2023-02-17T00:03:18;91834.03;;;0.30;82.45
6395;BME280;3230;42.588;23.358;2023-02-17T00:05:44;91842.81;;;0.36;83.45
6395;BME280;3230;42.588;23.358;2023-02-17T00:08:10;91846.31;;;0.28;83.14
6395;BME280;3230;42.588;23.358;2023-02-17T00:10:35;91824.34;;;0.39;78.09
6395;BME280;3230;42.588;23.358;2023-02-17T00:13:01;91838.00;;;0.32;79.08
6395;BME280;3230;42.588;23.358;2023-02-17T00:15:26;91833.06;;;0.31;82.08
6395;BME280;3230;42.588;23.358;2023-02-17T00:17:51;91834.44;;;0.34;80.55
6395;BME280;3230;42.588;23.358;2023-02-17T00:20:17;91836.81;;;0.28;79.01
6395;BME280;3230;42.588;23.358;2023-02-17T00:22:42;91833.34;;;0.14;80.09
6395;BME280;3230;42.588;23.358;2023-02-17T00:25:08;91832.03;;;0.25;79.05
6395;BME280;3230;42.588;23.358;2023-02-17T00:27:33;91829.22;;;0.20;79.00
6395;BME280;3230;42.588;23.358;2023-02-17T00:29:58;91834.03;;;0.23;80.12
6395;BME280;3230;42.588;23.358;2023-02-17T00:32:24;91827.63;;;0.19;80.40
6395;BME280;3230;42.588;23.358;2023-02-17T00:34:51;91819.28;;;0.17;79.68
6395;BME280;3230;42.588;23.358;2023-02-17T00:37:16;91824.63;;;0.09;81.41
6395;BME280;3230;42.588;23.358;2023-02-17T00:39:42;91815.66;;;0.05;80.73
6395;BME280;3230;42.588;23.358;2023-02-17T00:42:07;91824.56;;;-0.05;81.98
6395;BME280;3230;42.588;23.358;2023-02-17T00:44:33;91813.63;;;-0.07;82.67
6395;BME280;3230;42.588;23.358;2023-02-17T00:46:58;91815.09;;;0.03;84.10
6395;BME280;3230;42.588;23.358;2023-02-17T00:49:25;91809.94;;;0.03;84.43
6395;BME280;3230;42.588;23.358;2023-02-17T00:51:51;91809.59;;;-0.16;85.02
6395;BME280;3230;42.588;23.358;2023-02-17T00:54:17;91798.47;;;-0.23;86.03
6395;BME280;3230;42.588;23.358;2023-02-17T00:56:43;91791.34;;;-0.21;86.11
6395;BME280;3230;42.588;23.358;2023-02-17T00:59:10;91790.56;;;-0.22;87.00
6395;BME280;3230;42.588;23.358;2023-02-17T01:01:36;91783.63;;;-0.21;85.84
6395;BME280;3230;42.588;23.358;2023-02-17T01:04:01;91787.09;;;-0.36;85.93
6395;BME280;3230;42.588;23.358;2023-02-17T01:06:32;91781.72;;;-0.41;87.15
6395;BME280;3230;42.588;23.358;2023-02-17T01:08:58;91790.34;;;-0.55;86.85
6395;BME280;3230;42.588;23.358;2023-02-17T01:11:26;91798.16;;;-0.42;85.81
6395;BME280;3230;42.588;23.358;2023-02-17T01:13:53;91792.88;;;-0.34;86.33
6395;BME280;3230;42.588;23.358;2023-02-17T01:16:23;91798.03;;;-0.27;86.47
6395;BME280;3230;42.588;23.358;2023-02-17T01:18:49;91810.38;;;-0.22;86.85
6395;BME280;3230;42.588;23.358;2023-02-17T01:21:24;91783.91;;;-0.09;87.67
6395;BME280;3230;42.588;23.358;2023-02-17T01:23:51;91800.75;;;-0.07;88.24
6395;BME280;3230;42.588;23.358;2023-02-17T01:26:22;91788.47;;;-0.05;88.91
6395;BME280;3230;42.588;23.358;2023-02-17T01:28:48;91797.59;;;-0.02;89.33
6395;BME280;3230;42.588;23.358;2023-02-17T01:31:14;91775.25;;;0.05;89.75
6395;BME280;3230;42.588;23.358;2023-02-17T01:33:40;91787.09;;;-0.01;90.59
6395;BME280;3230;42.588;23.358;2023-02-17T01:36:07;91778.00;;;0.04;90.24
6395;BME280;3230;42.588;23.358;2023-02-17T01:38:34;91785.66;;;-0.10;90.63
6395;BME280;3230;42.588;23.358;2023-02-17T01:41:00;91797.56;;;-0.09;90.85
6395;BME280;3230;42.588;23.358;2023-02-17T01:43:26;91781.88;;;-0.14;91.19
6395;BME280;3230;42.588;23.358;2023-02-17T01:45:55;91783.25;;;-0.18;91.69
6395;BME280;3230;42.588;23.358;2023-02-17T01:48:24;91791.16;;;-0.20;91.42
6395;BME280;3230;42.588;23.358;2023-02-17T01:51:00;91775.19;;;-0.37;92.03
6395;BME280;3230;42.588;23.358;2023-02-17T01:53:49;91776.16;;;-0.44;92.41
6395;BME280;3230;42.588;23.358;2023-02-17T01:56:17;91774.41;;;-0.37;91.80
6395;BME280;3230;42.588;23.358;2023-02-17T01:58:46;91768.63;;;-0.46;91.92
6395;BME280;3230;42.588;23.358;2023-02-17T02:01:13;91762.50;;;-0.45;90.70
6395;BME280;3230;42.588;23.358;2023-02-17T02:03:39;91772.22;;;-0.40;91.53
6395;BME280;3230;42.588;23.358;2023-02-17T02:06:09;91769.00;;;-0.49;91.11
6395;BME280;3230;42.588;23.358;2023-02-17T02:08:50;91772.59;;;-0.43;90.74
6395;BME280;3230;42.588;23.358;2023-02-17T02:11:18;91766.41;;;-0.49;90.73
6395;BME280;3230;42.588;23.358;2023-02-17T02:13:43;91761.13;;;-0.41;91.32
6395;BME280;3230;42.588;23.358;2023-02-17T02:35:56;91760.56;;;0.06;88.10
6395;BME280;3230;42.588;23.358;2023-02-17T02:38:29;91749.69;;;0.10;88.18
6395;BME280;3230;42.588;23.358;2023-02-17T02:41:03;91761.03;;;0.16;88.64
6395;BME280;3230;42.588;23.358;2023-02-17T02:43:32;91762.44;;;0.25;88.19
6395;BME280;3230;42.588;23.358;2023-02-17T02:45:57;91761.03;;;0.16;88.79
6395;BME280;3230;42.588;23.358;2023-02-17T02:48:23;91767.16;;;0.15;89.62
6395;BME280;3230;42.588;23.358;2023-02-17T02:50:56;91771.34;;;0.23;88.64
6395;BME280;3230;42.588;23.358;2023-02-17T02:56:25;91765.00;;;0.19;89.19
6395;BME280;3230;42.588;23.358;2023-02-17T03:04:49;91774.50;;;0.18;88.59
6395;BME280;3230;42.588;23.358;2023-02-17T03:07:33;91768.59;;;0.31;87.67
6395;BME280;3230;42.588;23.358;2023-02-17T03:09:59;91763.66;;;0.29;87.99
6395;BME280;3230;42.588;23.358;2023-02-17T03:12:26;91763.09;;;0.41;86.85
6395;BME280;3230;42.588;23.358;2023-02-17T03:14:58;91769.84;;;0.42;86.79
6395;BME280;3230;42.588;23.358;2023-02-17T03:17:24;91780.16;;;0.48;85.94
6395;BME280;3230;42.588;23.358;2023-02-17T03:19:50;91773.41;;;0.47;85.91
6395;BME280;3230;42.588;23.358;2023-02-17T03:22:25;91772.66;;;0.54;85.51
6395;BME280;3230;42.588;23.358;2023-02-17T03:24:53;91775.03;;;0.55;84.97
6395;BME280;3230;42.588;23.358;2023-02-17T03:27:18;91771.47;;;0.56;84.33
6395;BME280;3230;42.588;23.358;2023-02-17T03:29:43;91774.25;;;0.68;84.23
6395;BME280;3230;42.588;23.358;2023-02-17T03:32:09;91765.94;;;0.73;83.46
6395;BME280;3230;42.588;23.358;2023-02-17T03:34:36;91769.94;;;0.82;83.82
6395;BME280;3230;42.588;23.358;2023-02-17T03:37:01;91758.41;;;0.78;83.34
6395;BME280;3230;42.588;23.358;2023-02-17T03:39:27;91767.34;;;0.82;83.63
6395;BME280;3230;42.588;23.358;2023-02-17T03:41:52;91773.13;;;0.98;82.53
6395;BME280;3230;42.588;23.358;2023-02-17T03:44:18;91765.16;;;0.92;83.27
6395;BME280;3230;42.588;23.358;2023-02-17T03:46:44;91771.94;;;0.93;82.76
6395;BME280;3230;42.588;23.358;2023-02-17T03:49:10;91770.34;;;1.06;81.24
6395;BME280;3230;42.588;23.358;2023-02-17T03:51:35;91772.94;;;1.06;81.57
6395;BME280;3230;42.588;23.358;2023-02-17T03:54:01;91771.13;;;1.00;82.59
6395;BME280;3230;42.588;23.358;2023-02-17T03:56:26;91762.41;;;1.01;82.99
6395;BME280;3230;42.588;23.358;2023-02-17T03:58:52;91751.69;;;0.90;83.98
6395;BME280;3230;42.588;23.358;2023-02-17T04:01:18;91761.22;;;0.97;84.14
6395;BME280;3230;42.588;23.358;2023-02-17T04:03:43;91758.44;;;0.91;84.92
6395;BME280;3230;42.588;23.358;2023-02-17T04:06:09;91772.31;;;0.84;84.76
6395;BME280;3230;42.588;23.358;2023-02-17T04:08:35;91770.13;;;0.81;84.94
6395;BME280;3230;42.588;23.358;2023-02-17T04:11:02;91761.22;;;0.83;84.37
6395;BME280;3230;42.588;23.358;2023-02-17T04:13:28;91758.81;;;0.75;84.16
6395;BME280;3230;42.588;23.358;2023-02-17T04:15:54;91763.56;;;0.78;84.23
6395;BME280;3230;42.588;23.358;2023-02-17T04:18:20;91769.72;;;0.77;83.89
6395;BME280;3230;42.588;23.358;2023-02-17T04:20:50;91768.75;;;0.91;83.44
6395;BME280;3230;42.588;23.358;2023-02-17T04:23:16;91770.31;;;0.72;85.03
6395;BME280;3230;42.588;23.358;2023-02-17T04:25:42;91757.00;;;0.75;84.43
6395;BME280;3230;42.588;23.358;2023-02-17T04:28:08;91764.13;;;0.67;85.34
6395;BME280;3230;42.588;23.358;2023-02-17T04:30:34;91759.38;;;0.63;85.68
6395;BME280;3230;42.588;23.358;2023-02-17T04:32:59;91758.97;;;0.67;85.44
6395;BME280;3230;42.588;23.358;2023-02-17T04:35:25;91764.88;;;0.47;86.64
6395;BME280;3230;42.588;23.358;2023-02-17T04:37:51;91760.72;;;0.46;86.27
6395;BME280;3230;42.588;23.358;2023-02-17T04:40:17;91754.81;;;0.59;85.83
6395;BME280;3230;42.588;23.358;2023-02-17T04:42:43;91774.63;;;0.58;85.83
6395;BME280;3230;42.588;23.358;2023-02-17T04:45:09;91758.38;;;0.58;86.07
6395;BME280;3230;42.588;23.358;2023-02-17T04:47:34;91752.84;;;0.61;85.75
6395;BME280;3230;42.588;23.358;2023-02-17T04:50:00;91753.22;;;0.58;86.64
6395;BME280;3230;42.588;23.358;2023-02-17T04:52:25;91749.63;;;0.45;88.10
6395;BME280;3230;42.588;23.358;2023-02-17T04:54:51;91760.34;;;0.49;87.19
6395;BME280;3230;42.588;23.358;2023-02-17T04:57:17;91751.63;;;0.50;86.63
6395;BME280;3230;42.588;23.358;2023-02-17T04:59:42;91761.16;;;0.56;85.96
6395;BME280;3230;42.588;23.358;2023-02-17T05:02:08;91774.88;;;0.70;85.14
6395;BME280;3230;42.588;23.358;2023-02-17T05:04:34;91772.34;;;0.90;84.79
6395;BME280;3230;42.588;23.358;2023-02-17T05:06:59;91769.53;;;0.78;86.09
6395;BME280;3230;42.588;23.358;2023-02-17T05:09:24;91777.47;;;0.77;86.44
6395;BME280;3230;42.588;23.358;2023-02-17T05:11:50;91783.00;;;0.74;86.16
6395;BME280;3230;42.588;23.358;2023-02-17T05:14:16;91785.75;;;0.66;86.52
6395;BME280;3230;42.588;23.358;2023-02-17T05:16:41;91765.75;;;0.81;85.92
6395;BME280;3230;42.588;23.358;2023-02-17T05:19:06;91784.81;;;0.80;85.79
6395;BME280;3230;42.588;23.358;2023-02-17T05:21:32;91773.31;;;1.50;78.89
6395;BME280;3230;42.588;23.358;2023-02-17T05:23:58;91788.44;;;1.46;82.40
6395;BME280;3230;42.588;23.358;2023-02-17T05:26:23;91792.81;;;1.46;84.55
6395;BME280;3230;42.588;23.358;2023-02-17T05:28:49;91794.59;;;1.45;85.86
6395;BME280;3230;42.588;23.358;2023-02-17T05:31:14;91802.53;;;1.30;86.96
6395;BME280;3230;42.588;23.358;2023-02-17T05:33:40;91799.75;;;1.11;87.26
6395;BME280;3230;42.588;23.358;2023-02-17T05:36:07;91812.84;;;0.97;88.75
6395;BME280;3230;42.588;23.358;2023-02-17T05:38:33;91812.44;;;1.00;89.47
6395;BME280;3230;42.588;23.358;2023-02-17T05:40:59;91820.00;;;1.08;88.36
6395;BME280;3230;42.588;23.358;2023-02-17T05:43:24;91821.56;;;0.95;89.45
6395;BME280;3230;42.588;23.358;2023-02-17T05:45:50;91805.25;;;0.82;90.11
6395;BME280;3230;42.588;23.358;2023-02-17T05:48:15;91817.16;;;0.76;90.78
6395;BME280;3230;42.588;23.358;2023-02-17T05:50:41;91824.34;;;0.94;90.32
6395;BME280;3230;42.588;23.358;2023-02-17T05:53:06;91817.63;;;1.13;89.19
6395;BME280;3230;42.588;23.358;2023-02-17T05:55:32;91835.09;;;1.18;89.76
6395;BME280;3230;42.588;23.358;2023-02-17T05:57:57;91822.41;;;1.30;89.16
6395;BME280;3230;42.588;23.358;2023-02-17T06:00:23;91836.31;;;1.55;87.27
6395;BME280;3230;42.588;23.358;2023-02-17T06:02:48;91838.13;;;1.82;86.45
6395;BME280;3230;42.588;23.358;2023-02-17T06:05:14;91833.72;;;2.02;86.34
6395;BME280;3230;42.588;23.358;2023-02-17T06:07:40;91835.44;;;2.29;86.01
6395;BME280;3230;42.588;23.358;2023-02-17T06:10:06;91832.38;;;2.59;82.93
6395;BME280;3230;42.588;23.358;2023-02-17T06:12:32;91848.72;;;2.98;82.00
6395;BME280;3230;42.588;23.358;2023-02-17T06:14:58;91849.41;;;3.18;79.36
6395;BME280;3230;42.588;23.358;2023-02-17T06:17:23;91854.81;;;3.74;78.40
6395;BME280;3230;42.588;23.358;2023-02-17T06:19:49;91850.53;;;4.30;75.03
6395;BME280;3230;42.588;23.358;2023-02-17T06:22:14;91863.88;;;4.71;73.04
6395;BME280;3230;42.588;23.358;2023-02-17T06:24:39;91859.53;;;5.02;71.37
6395;BME280;3230;42.588;23.358;2023-02-17T06:27:05;91853.88;;;5.24;65.65
6395;BME280;3230;42.588;23.358;2023-02-17T06:29:30;91850.88;;;5.39;66.17
6395;BME280;3230;42.588;23.358;2023-02-17T06:31:56;91863.97;;;5.74;63.72
6395;BME280;3230;42.588;23.358;2023-02-17T06:34:21;91863.44;;;5.96;61.39
6395;BME280;3230;42.588;23.358;2023-02-17T06:36:46;91861.41;;;5.98;62.53
6395;BME280;3230;42.588;23.358;2023-02-17T06:39:12;91861.72;;;5.90;61.36
6395;BME280;3230;42.588;23.358;2023-02-17T06:41:37;91856.78;;;6.00;58.96
6395;BME280;3230;42.588;23.358;2023-02-17T06:44:03;91856.34;;;6.27;58.12
6395;BME280;3230;42.588;23.358;2023-02-17T06:46:28;91867.34;;;6.53;53.88
6395;BME280;3230;42.588;23.358;2023-02-17T06:48:54;91859.38;;;6.71;53.77
6395;BME280;3230;42.588;23.358;2023-02-17T06:51:19;91871.25;;;6.91;51.05
6395;BME280;3230;42.588;23.358;2023-02-17T06:53:45;91878.78;;;7.16;52.14
6395;BME280;3230;42.588;23.358;2023-02-17T06:56:10;91863.72;;;7.35;49.50
6395;BME280;3230;42.588;23.358;2023-02-17T06:58:36;91871.78;;;7.63;46.13
6395;BME280;3230;42.588;23.358;2023-02-17T07:01:02;91869.50;;;7.66;45.71
6395;BME280;3230;42.588;23.358;2023-02-17T07:03:30;91860.28;;;7.76;49.48
6395;BME280;3230;42.588;23.358;2023-02-17T07:05:59;91870.50;;;7.94;47.91
6395;BME280;3230;42.588;23.358;2023-02-17T07:08:25;91879.91;;;8.12;44.97
6395;BME280;3230;42.588;23.358;2023-02-17T07:10:50;91876.09;;;8.20;46.91
6395;BME280;3230;42.588;23.358;2023-02-17T07:13:16;91879.19;;;8.17;49.32
6395;BME280;3230;42.588;23.358;2023-02-17T07:15:41;91871.91;;;8.53;47.51
6395;BME280;3230;42.588;23.358;2023-02-17T07:18:07;91877.38;;;8.69;45.83
6395;BME280;3230;42.588;23.358;2023-02-17T07:20:32;91885.31;;;8.79;46.60
6395;BME280;3230;42.588;23.358;2023-02-17T07:22:59;91875.84;;;8.73;46.23
6395;BME280;3230;42.588;23.358;2023-02-17T07:25:25;91879.75;;;8.53;46.25
6395;BME280;3230;42.588;23.358;2023-02-17T07:27:50;91879.34;;;8.61;47.45
6395;BME280;3230;42.588;23.358;2023-02-17T07:30:16;91885.59;;;9.22;45.71
6395;BME280;3230;42.588;23.358;2023-02-17T07:32:42;91889.97;;;10.20;44.56
6395;BME280;3230;42.588;23.358;2023-02-17T07:35:07;91900.75;;;11.63;42.49
6395;BME280;3230;42.588;23.358;2023-02-17T07:37:32;91885.59;;;11.86;40.46
6395;BME280;3230;42.588;23.358;2023-02-17T07:39:58;91890.31;;;11.83;39.57
6395;BME280;3230;42.588;23.358;2023-02-17T07:42:26;91890.28;;;13.28;37.88
6395;BME280;3230;42.588;23.358;2023-02-17T07:44:51;91886.16;;;14.57;36.56
6395;BME280;3230;42.588;23.358;2023-02-17T07:47:17;91898.41;;;15.55;35.78
6395;BME280;3230;42.588;23.358;2023-02-17T07:49:42;91900.91;;;15.89;32.94
6395;BME280;3230;42.588;23.358;2023-02-17T07:52:07;91898.31;;;17.26;31.22
6395;BME280;3230;42.588;23.358;2023-02-17T07:54:33;91886.47;;;17.38;31.48
6395;BME280;3230;42.588;23.358;2023-02-17T07:56:58;91902.53;;;18.11;30.25
6395;BME280;3230;42.588;23.358;2023-02-17T07:59:24;91899.09;;;19.56;27.09
6395;BME280;3230;42.588;23.358;2023-02-17T08:01:50;91904.81;;;19.40;26.91
6395;BME280;3230;42.588;23.358;2023-02-17T08:04:16;91907.91;;;20.58;25.55
6395;BME280;3230;42.588;23.358;2023-02-17T08:06:41;91893.25;;;21.34;25.37
6395;BME280;3230;42.588;23.358;2023-02-17T08:09:09;91893.00;;;21.18;24.72
6395;BME280;3230;42.588;23.358;2023-02-17T08:11:53;91901.81;;;20.49;26.17
6395;BME280;3230;42.588;23.358;2023-02-17T08:14:37;91905.28;;;21.58;24.09
6395;BME280;3230;42.588;23.358;2023-02-17T08:17:03;91908.44;;;21.43;23.87
6395;BME280;3230;42.588;23.358;2023-02-17T08:19:29;91912.41;;;19.24;26.05
6395;BME280;3230;42.588;23.358;2023-02-17T08:21:54;91916.03;;;20.70;24.83
6395;BME280;3230;42.588;23.358;2023-02-17T08:24:20;91914.97;;;21.71;23.22
6395;BME280;3230;42.588;23.358;2023-02-17T08:26:50;91907.66;;;21.42;22.86
6395;BME280;3230;42.588;23.358;2023-02-17T08:29:16;91915.59;;;21.68;23.70
6395;BME280;3230;42.588;23.358;2023-02-17T08:31:41;91906.41;;;21.87;22.27
6395;BME280;3230;42.588;23.358;2023-02-17T08:34:09;91905.88;;;21.55;23.70
6395;BME280;3230;42.588;23.358;2023-02-17T08:36:35;91899.88;;;21.76;22.79
6395;BME280;3230;42.588;23.358;2023-02-17T08:39:09;91899.13;;;21.66;22.37
6395;BME280;3230;42.588;23.358;2023-02-17T08:41:36;91895.38;;;20.67;24.45
6395;BME280;3230;42.588;23.358;2023-02-17T08:44:06;91903.72;;;21.87;23.07
6395;BME280;3230;42.588;23.358;2023-02-17T08:46:33;91892.06;;;22.51;21.61
6395;BME280;3230;42.588;23.358;2023-02-17T08:48:59;91897.78;;;22.41;21.71
6395;BME280;3230;42.588;23.358;2023-02-17T08:51:25;91891.59;;;23.04;20.90
6395;BME280;3230;42.588;23.358;2023-02-17T08:53:53;91906.84;;;24.20;20.14
6395;BME280;3230;42.588;23.358;2023-02-17T08:56:19;91894.19;;;23.13;20.83
6395;BME280;3230;42.588;23.358;2023-02-17T08:58:45;91894.06;;;23.43;20.09
6395;BME280;3230;42.588;23.358;2023-02-17T09:01:11;91889.81;;;22.96;21.55
6395;BME280;3230;42.588;23.358;2023-02-17T09:03:37;91895.56;;;20.80;23.52
6395;BME280;3230;42.588;23.358;2023-02-17T09:06:03;91877.97;;;19.50;25.01
6395;BME280;3230;42.588;23.358;2023-02-17T09:08:28;91887.91;;;16.50;27.72
6395;BME280;3230;42.588;23.358;2023-02-17T09:10:54;91895.03;;;15.25;30.19
6395;BME280;3230;42.588;23.358;2023-02-17T09:13:19;91888.31;;;14.84;31.59
6395;BME280;3230;42.588;23.358;2023-02-17T09:15:45;91884.59;;;13.71;33.01
6395;BME280;3230;42.588;23.358;2023-02-17T09:18:10;91884.97;;;13.33;32.79
6395;BME280;3230;42.588;23.358;2023-02-17T09:20:36;91875.69;;;12.60;34.00
6395;BME280;3230;42.588;23.358;2023-02-17T09:23:04;91864.91;;;12.20;34.29
6395;BME280;3230;42.588;23.358;2023-02-17T09:25:29;91878.84;;;12.26;33.14
6395;BME280;3230;42.588;23.358;2023-02-17T09:27:55;91879.63;;;12.21;34.39
6395;BME280;3230;42.588;23.358;2023-02-17T09:30:20;91867.22;;;11.91;35.09
6395;BME280;3230;42.588;23.358;2023-02-17T09:32:45;91878.47;;;11.65;35.45
6395;BME280;3230;42.588;23.358;2023-02-17T09:35:14;91886.56;;;11.48;37.72
6395;BME280;3230;42.588;23.358;2023-02-17T09:37:39;91878.38;;;11.40;35.67
6395;BME280;3230;42.588;23.358;2023-02-17T09:40:06;91887.75;;;11.25;37.34
6395;BME280;3230;42.588;23.358;2023-02-17T09:42:36;91879.63;;;11.22;38.68
6395;BME280;3230;42.588;23.358;2023-02-17T09:45:06;91882.97;;;11.12;39.14
6395;BME280;3230;42.588;23.358;2023-02-17T09:50:19;91887.34;;;10.91;38.76
6395;BME280;3230;42.588;23.358;2023-02-17T09:53:04;91874.13;;;10.75;36.66
6395;BME280;3230;42.588;23.358;2023-02-17T09:55:39;91884.09;;;10.73;38.92
6395;BME280;3230;42.588;23.358;2023-02-17T10:00:41;91887.34;;;10.91;38.72
6395;BME280;3230;42.588;23.358;2023-02-17T10:03:24;91880.53;;;10.90;40.03
6395;BME280;3230;42.588;23.358;2023-02-17T10:06:02;91870.28;;;10.83;40.16
6395;BME280;3230;42.588;23.358;2023-02-17T10:08:42;91874.50;;;10.89;39.01
6395;BME280;3230;42.588;23.358;2023-02-17T10:13:43;91864.41;;;11.18;37.92
6395;BME280;3230;42.588;23.358;2023-02-17T10:16:16;91866.00;;;11.25;36.94
6395;BME280;3230;42.588;23.358;2023-02-17T10:18:48;91876.56;;;11.40;33.64
6395;BME280;3230;42.588;23.358;2023-02-17T10:21:20;91874.63;;;11.20;33.10
6395;BME280;3230;42.588;23.358;2023-02-17T10:23:49;91864.47;;;11.34;35.79
6395;BME280;3230;42.588;23.358;2023-02-17T10:26:22;91874.97;;;11.34;32.75
6395;BME280;3230;42.588;23.358;2023-02-17T10:28:51;91858.69;;;11.37;32.55
6395;BME280;3230;42.588;23.358;2023-02-17T10:31:30;91864.50;;;11.49;32.89
6395;BME280;3230;42.588;23.358;2023-02-17T10:34:04;91849.28;;;11.51;31.98
6395;BME280;3230;42.588;23.358;2023-02-17T10:39:15;91858.75;;;11.58;31.47
6395;BME280;3230;42.588;23.358;2023-02-17T10:41:48;91846.44;;;11.74;32.05
6395;BME280;3230;42.588;23.358;2023-02-17T10:44:19;91841.97;;;11.59;32.10
6395;BME280;3230;42.588;23.358;2023-02-17T10:46:45;91842.00;;;11.74;32.41
6395;BME280;3230;42.588;23.358;2023-02-17T10:49:22;91843.31;;;11.72;32.40
6395;BME280;3230;42.588;23.358;2023-02-17T10:51:50;91839.91;;;11.81;32.54
6395;BME280;3230;42.588;23.358;2023-02-17T10:54:32;91827.28;;;11.78;32.41
6395;BME280;3230;42.588;23.358;2023-02-17T10:57:02;91823.59;;;11.69;33.30
6395;BME280;3230;42.588;23.358;2023-02-17T10:59:32;91823.63;;;11.90;33.87
6395;BME280;3230;42.588;23.358;2023-02-17T11:02:17;91816.28;;;11.87;33.35
6395;BME280;3230;42.588;23.358;2023-02-17T11:04:44;91826.22;;;11.69;32.82
6395;BME280;3230;42.588;23.358;2023-02-17T11:07:13;91822.53;;;11.55;32.66
6395;BME280;3230;42.588;23.358;2023-02-17T11:09:47;91830.16;;;11.66;32.88
6395;BME280;3230;42.588;23.358;2023-02-17T11:12:17;91811.03;;;11.81;33.31
6395;BME280;3230;42.588;23.358;2023-02-17T11:14:47;91820.19;;;11.74;33.13
6395;BME280;3230;42.588;23.358;2023-02-17T11:17:19;91819.91;;;11.65;33.06
6395;BME280;3230;42.588;23.358;2023-02-17T11:19:58;91809.44;;;11.80;33.69
6395;BME280;3230;42.588;23.358;2023-02-17T11:22:37;91822.31;;;11.77;33.35
6395;BME280;3230;42.588;23.358;2023-02-17T11:25:19;91811.28;;;11.75;32.54
6395;BME280;3230;42.588;23.358;2023-02-17T11:27:56;91809.97;;;11.93;33.66
6395;BME280;3230;42.588;23.358;2023-02-17T11:30:23;91814.22;;;12.09;32.83
6395;BME280;3230;42.588;23.358;2023-02-17T11:32:49;91809.22;;;12.08;33.31
6395;BME280;3230;42.588;23.358;2023-02-17T11:35:27;91812.63;;;12.03;32.28
6395;BME280;3230;42.588;23.358;2023-02-17T11:38:08;91815.00;;;11.99;33.94
6395;BME280;3230;42.588;23.358;2023-02-17T11:40:34;91814.47;;;11.97;33.34
6395;BME280;3230;42.588;23.358;2023-02-17T11:43:01;91809.47;;;12.11;33.26
6395;BME280;3230;42.588;23.358;2023-02-17T11:46:07;91809.75;;;12.15;32.94
6395;BME280;3230;42.588;23.358;2023-02-17T11:51:17;91799.50;;;12.29;33.11
6395;BME280;3230;42.588;23.358;2023-02-17T11:53:56;91807.66;;;12.17;32.25
6395;BME280;3230;42.588;23.358;2023-02-17T11:56:37;91798.97;;;12.32;32.60
6395;BME280;3230;42.588;23.358;2023-02-17T12:02:16;91802.09;;;12.39;33.45
6395;BME280;3230;42.588;23.358;2023-02-17T12:10:04;91796.88;;;12.13;33.11
6395;BME280;3230;42.588;23.358;2023-02-17T12:12:54;91789.78;;;12.09;34.48
6395;BME280;3230;42.588;23.358;2023-02-17T12:18:17;91777.69;;;12.18;33.56
6395;BME280;3230;42.588;23.358;2023-02-17T12:24:09;91786.88;;;12.26;33.41
6395;BME280;3230;42.588;23.358;2023-02-17T12:26:45;91779.81;;;12.11;34.79
6395;BME280;3230;42.588;23.358;2023-02-17T12:29:18;91776.63;;;12.29;36.08
6395;BME280;3230;42.588;23.358;2023-02-17T12:36:55;91763.53;;;12.19;35.64
6395;BME280;3230;42.588;23.358;2023-02-17T12:39:24;91762.72;;;12.03;35.86
6395;BME280;3230;42.588;23.358;2023-02-17T12:45:21;91758.25;;;12.09;36.00
6395;BME280;3230;42.588;23.358;2023-02-17T12:47:59;91748.81;;;11.92;36.46
6395;BME280;3230;42.588;23.358;2023-02-17T12:53:00;91762.19;;;12.11;37.48
6395;BME280;3230;42.588;23.358;2023-02-17T12:55:35;91756.97;;;12.01;37.16
6395;BME280;3230;42.588;23.358;2023-02-17T12:58:12;91752.72;;;12.10;36.32
6395;BME280;3230;42.588;23.358;2023-02-17T13:00:47;91758.00;;;12.21;36.43
6395;BME280;3230;42.588;23.358;2023-02-17T13:03:14;91745.91;;;12.20;36.16
6395;BME280;3230;42.588;23.358;2023-02-17T13:05:57;91748.00;;;12.23;36.74
6395;BME280;3230;42.588;23.358;2023-02-17T13:11:09;91747.47;;;12.21;36.64
6395;BME280;3230;42.588;23.358;2023-02-17T13:13:35;91742.72;;;12.33;36.88
6395;BME280;3230;42.588;23.358;2023-02-17T13:16:05;91742.16;;;12.46;37.24
6395;BME280;3230;42.588;23.358;2023-02-17T13:18:33;91751.34;;;12.54;36.82
6395;BME280;3230;42.588;23.358;2023-02-17T13:26:32;91755.31;;;12.41;36.81
6395;BME280;3230;42.588;23.358;2023-02-17T13:32:10;91756.09;;;12.47;36.90
6395;BME280;3230;42.588;23.358;2023-02-17T13:34:42;91746.91;;;12.50;35.99
6395;BME280;3230;42.588;23.358;2023-02-17T13:37:24;91748.97;;;12.53;35.38
6395;BME280;3230;42.588;23.358;2023-02-17T13:39:51;91743.41;;;12.70;36.06
6395;BME280;3230;42.588;23.358;2023-02-17T13:42:35;91758.94;;;12.66;36.86
6395;BME280;3230;42.588;23.358;2023-02-17T13:47:39;91752.41;;;12.53;36.81
6395;BME280;3230;42.588;23.358;2023-02-17T13:50:20;91744.53;;;12.53;36.17
6395;BME280;3230;42.588;23.358;2023-02-17T13:52:49;91750.81;;;12.47;36.98
6395;BME280;3230;42.588;23.358;2023-02-17T13:55:18;91749.25;;;12.41;36.19
6395;BME280;3230;42.588;23.358;2023-02-17T13:57:44;91737.72;;;12.42;36.60
6395;BME280;3230;42.588;23.358;2023-02-17T14:00:23;91747.16;;;12.48;35.82
6395;BME280;3230;42.588;23.358;2023-02-17T14:02:55;91741.69;;;12.34;35.95
6395;BME280;3230;42.588;23.358;2023-02-17T14:05:36;91741.69;;;12.29;36.39
6395;BME280;3230;42.588;23.358;2023-02-17T14:08:10;91741.19;;;12.22;36.46
6395;BME280;3230;42.588;23.358;2023-02-17T14:10:36;91744.84;;;12.26;35.72
6395;BME280;3230;42.588;23.358;2023-02-17T14:13:02;91738.78;;;12.20;35.89
6395;BME280;3230;42.588;23.358;2023-02-17T14:15:30;91753.25;;;12.12;36.05
6395;BME280;3230;42.588;23.358;2023-02-17T14:17:55;91739.59;;;12.10;35.38
6395;BME280;3230;42.588;23.358;2023-02-17T14:20:33;91741.19;;;12.06;36.72
6395;BME280;3230;42.588;23.358;2023-02-17T14:23:07;91753.03;;;12.04;36.21
6395;BME280;3230;42.588;23.358;2023-02-17T14:25:39;91746.69;;;11.79;36.17
6395;BME280;3230;42.588;23.358;2023-02-17T14:28:25;91746.44;;;11.80;35.90
6395;BME280;3230;42.588;23.358;2023-02-17T14:30:51;91751.16;;;11.73;36.15
6395;BME280;3230;42.588;23.358;2023-02-17T14:33:22;91751.69;;;11.75;35.47
6395;BME280;3230;42.588;23.358;2023-02-17T14:38:23;91752.97;;;11.47;35.42
6395;BME280;3230;42.588;23.358;2023-02-17T14:40:49;91763.47;;;11.36;36.39
6395;BME280;3230;42.588;23.358;2023-02-17T14:43:16;91756.59;;;11.25;36.36
6395;BME280;3230;42.588;23.358;2023-02-17T14:45:42;91760.03;;;11.31;35.34